Aurora State Airport
KUAO : now visible

Airfield :











YOU CAN JOIN US ON...

 
LOGIN :

Register | Disclaimer

   EN    FR    IT 

 









Legend :    VFR   Marginal VFR   IFR   Intensive IFR   Very Intensive IFR
Visi :
Ceiling :
>= 8 km
>= 3000ft
5 to 8 km
1000 to 3000 ft
1500m to 5 km
500 to 1000 ft
800 to 1500m
200 to 500 ft
< 800m
< 200 ft
Symbols :   Thunderstorms  Fog  Heavy snow  Heavy precipitations  Wind > 20 kt






- Airport Elevation : 200 ft


KUAO - Aurora State

CURRENT METAR :
  • 150253Z 35004KT 9SM SCT010 OVC018 06/04 A3000 RMK AO2 SLP159 T00610044 53003

EXPIRED METARs :
  • 150234Z 36005KT 9SM FEW009 BKN016 04/03 A3000 RMK AO2 T00440033
  • 150153Z 03003KT 10SM CLR 06/04 A2999 RMK AO2 SLP155 T00560039
  • 150053Z 36004KT 10SM FEW100 07/04 A2999 RMK AO2 SLP155 T00670044

TAF KUAO
Valid from the 15 at 00:00 until the 16 at 00:00 UTC


142342Z 1500/1524 00000KT P6SM VCSH SCT025 BKN070
FM150300 VRB03KT P6SM OVC025
FM150600 00000KT 4SM BR SCT007 OVC012
FM151000 00000KT 2SM BR OVC006
FM151200 00000KT 1/2SM FG OVC006
FM151800 20002KT 4SM BR SCT006 BKN015
FM152000 20004KT 6SM BR SCT015 OVC030



MET'MAP, your aeronautical weather chart ! - Copyright ORBIFLY December 2007 - Disclaimer

ORBIFLY MET'MAP TEAM :

Programming & Development : Alexandra Zaïnal
Concept & original design : Baudouin d'Aumeries
Assistance for programming : Marc-Olivier Méhu
Technical & hardware support : Manuel Goepfert

Contact : metmap@orbifly.com




SOURCES & CREDITS :

   NOAA       Earth
Advisory